Time;durP1;ratioP1;P1;durP2;ratioP2;P2;SDS_P1;SDS_P2;PMS_P1;PMS_P2;Temp;Humidity;BMP_temperature;BMP_pressure;BME280_temperature;BME280_humidity;BME280_pressure;Samples;Min_cycle;Max_cycle;Signal;HPM_P1;HPM_P2
2022/08/26 00:00:23;;;;;;;3.72;2.40;;;16.60;99.90;;;;;;6288402;28;20367;-67
2022/08/26 00:03:28;;;;;;;3.55;2.55;;;16.60;99.90;;;;;;6274960;28;20631;-67
2022/08/26 00:06:36;;;;;;;4.68;2.42;;;16.50;99.90;;;;;;6264189;28;20277;-66
2022/08/26 00:09:46;;;;;;;11.07;2.60;;;16.60;99.90;;;;;;6260418;28;20315;-66
2022/08/26 00:12:55;;;;;;;6.38;3.10;;;16.60;99.90;;;;;;6259443;28;20299;-66
2022/08/26 00:16:01;;;;;;;6.80;3.08;;;16.60;99.90;;;;;;6263539;28;20267;-66
2022/08/26 00:19:07;;;;;;;17.15;3.30;;;16.60;99.90;;;;;;6263616;28;20339;-67
2022/08/26 00:22:12;;;;;;;6.97;3.13;;;16.60;99.90;;;;;;6263179;28;20295;-67
2022/08/26 00:25:26;;;;;;;5.63;2.80;;;16.70;99.90;;;;;;6263818;28;20292;-67
2022/08/26 00:28:33;;;;;;;11.20;2.80;;;16.70;99.90;;;;;;6263018;28;20295;-66
2022/08/26 00:31:40;;;;;;;7.45;3.08;;;16.60;99.90;;;;;;6263531;28;20276;-66
2022/08/26 00:34:46;;;;;;;10.88;2.67;;;16.70;99.90;;;;;;6263293;28;20295;-66
2022/08/26 00:37:51;;;;;;;11.13;2.78;;;16.70;99.90;;;;;;6263099;28;20296;-67
2022/08/26 00:40:57;;;;;;;3.13;2.83;;;16.60;99.90;;;;;;6263373;28;20292;-66
2022/08/26 00:44:05;;;;;;;5.05;3.05;;;16.60;99.90;;;;;;6262823;28;20304;-66
2022/08/26 00:47:23;;;;;;;3.25;2.63;;;16.60;99.90;;;;;;6262679;28;20502;-67
2022/08/26 00:50:33;;;;;;;3.83;2.97;;;16.60;99.90;;;;;;6263369;28;20277;-66
2022/08/26 00:53:45;;;;;;;2.90;2.70;;;16.60;99.90;;;;;;6262136;28;20509;-66
2022/08/26 00:56:56;;;;;;;2.92;2.83;;;16.60;99.90;;;;;;6260806;28;20276;-66
2022/08/26 01:00:11;;;;;;;2.85;2.60;;;16.50;99.90;;;;;;6262900;28;20267;-66
2022/08/26 01:03:18;;;;;;;2.78;2.67;;;16.50;99.90;;;;;;6274250;28;20303;-66
2022/08/26 01:06:26;;;;;;;2.50;2.30;;;16.50;99.90;;;;;;6269913;28;20267;-67
2022/08/26 01:09:32;;;;;;;3.03;2.85;;;16.50;99.90;;;;;;6286223;28;20294;-67
2022/08/26 01:12:42;;;;;;;7.00;2.90;;;16.50;99.90;;;;;;6280741;28;20307;-66
2022/08/26 01:15:52;;;;;;;2.85;2.75;;;16.50;99.90;;;;;;6287433;28;20275;-66
2022/08/26 01:19:00;;;;;;;2.30;2.20;;;16.50;99.90;;;;;;6286796;28;20294;-66
2022/08/26 01:22:12;;;;;;;2.50;2.50;;;16.50;99.90;;;;;;6286536;28;20270;-66
2022/08/26 01:25:20;;;;;;;2.53;2.53;;;16.50;99.90;;;;;;6286465;28;20382;-66
2022/08/26 01:28:29;;;;;;;3.33;2.75;;;16.40;99.90;;;;;;6286553;28;20428;-66
2022/08/26 01:31:40;;;;;;;2.63;2.42;;;16.40;99.90;;;;;;6286780;28;20297;-67
2022/08/26 01:34:47;;;;;;;2.78;2.60;;;16.40;99.90;;;;;;6286442;28;20610;-66
2022/08/26 01:37:56;;;;;;;2.90;2.53;;;16.40;99.90;;;;;;6286243;28;20295;-66
2022/08/26 01:41:03;;;;;;;2.97;2.78;;;16.50;99.90;;;;;;6286568;28;20267;-66
2022/08/26 01:44:24;;;;;;;3.17;3.03;;;16.50;99.90;;;;;;6286367;28;20590;-67
2022/08/26 01:47:31;;;;;;;5.55;2.58;;;16.50;99.90;;;;;;6286301;28;20283;-66
2022/08/26 01:50:37;;;;;;;6.00;2.80;;;16.50;99.90;;;;;;6286474;28;20278;-66
2022/08/26 01:53:43;;;;;;;4.05;2.45;;;16.40;99.90;;;;;;6285738;28;20295;-66
2022/08/26 01:56:54;;;;;;;5.45;2.60;;;16.40;99.90;;;;;;6285872;28;20271;-67
2022/08/26 02:00:04;;;;;;;4.00;2.53;;;16.40;99.90;;;;;;6286088;28;20271;-66
2022/08/26 02:03:20;;;;;;;2.70;2.60;;;16.30;99.90;;;;;;6285335;28;20627;-66
2022/08/26 02:06:26;;;;;;;2.65;2.45;;;16.40;99.90;;;;;;6285942;28;20590;-67
2022/08/26 02:09:32;;;;;;;2.95;2.70;;;16.40;99.90;;;;;;6285547;28;20299;-66
2022/08/26 02:12:47;;;;;;;7.25;2.60;;;16.30;99.90;;;;;;6285627;28;20295;-66
2022/08/26 02:15:53;;;;;;;2.70;2.60;;;16.30;99.90;;;;;;6285563;28;20280;-67
2022/08/26 02:19:01;;;;;;;2.17;2.17;;;16.30;99.90;;;;;;6285632;28;20300;-67
2022/08/26 02:22:14;;;;;;;7.93;2.53;;;16.30;99.90;;;;;;6285185;28;20274;-66
2022/08/26 02:25:25;;;;;;;2.67;2.63;;;16.30;99.90;;;;;;6285771;28;20299;-66
2022/08/26 02:28:39;;;;;;;2.63;2.58;;;16.30;99.90;;;;;;6285343;28;20295;-66
2022/08/26 02:31:44;;;;;;;2.88;2.78;;;16.30;99.90;;;;;;6285732;28;20267;-66
2022/08/26 02:34:49;;;;;;;2.65;2.55;;;16.30;99.90;;;;;;6284693;28;20303;-66
2022/08/26 02:37:56;;;;;;;4.13;2.83;;;16.30;99.90;;;;;;6284615;28;20299;-67
2022/08/26 02:41:02;;;;;;;2.60;2.50;;;16.30;99.90;;;;;;6285534;28;20267;-67
2022/08/26 02:44:09;;;;;;;2.40;2.30;;;16.20;99.90;;;;;;6284656;28;20294;-66
2022/08/26 02:47:15;;;;;;;2.97;2.80;;;16.20;99.90;;;;;;6284353;28;20299;-66
2022/08/26 02:50:21;;;;;;;2.67;2.50;;;16.20;99.90;;;;;;6285517;28;20451;-66
2022/08/26 02:53:26;;;;;;;2.60;2.50;;;16.20;99.90;;;;;;6284710;28;20294;-67
2022/08/26 02:56:36;;;;;;;2.80;2.70;;;16.20;99.90;;;;;;6285411;28;20270;-67
2022/08/26 02:59:42;;;;;;;3.08;2.90;;;16.20;99.90;;;;;;6284768;28;20302;-66
2022/08/26 03:02:49;;;;;;;2.63;2.53;;;16.20;99.90;;;;;;6284397;28;20454;-66
2022/08/26 03:05:54;;;;;;;2.65;2.55;;;16.10;99.90;;;;;;6283893;28;20295;-67
2022/08/26 03:09:00;;;;;;;2.65;2.60;;;16.10;99.90;;;;;;6284417;28;20599;-67
2022/08/26 03:12:06;;;;;;;3.17;2.90;;;16.10;99.90;;;;;;6285199;28;20268;-67
2022/08/26 03:15:17;;;;;;;2.50;2.50;;;16.10;99.90;;;;;;6284845;28;20478;-66
2022/08/26 03:18:22;;;;;;;2.55;2.55;;;16.10;99.90;;;;;;6284375;28;20299;-66
2022/08/26 03:21:28;;;;;;;4.30;2.58;;;16.10;99.90;;;;;;6285066;28;20272;-66
2022/08/26 03:24:33;;;;;;;3.00;2.90;;;16.10;99.90;;;;;;6284323;28;20295;-66
2022/08/26 03:27:39;;;;;;;3.63;2.67;;;16.10;99.90;;;;;;6284903;28;20291;-66
2022/08/26 03:30:48;;;;;;;3.28;2.80;;;16.10;99.90;;;;;;6284423;28;20291;-66
2022/08/26 03:33:54;;;;;;;2.60;2.50;;;16.10;99.90;;;;;;6284066;28;20307;-66
2022/08/26 03:37:04;;;;;;;2.55;2.55;;;16.10;99.90;;;;;;6283301;28;20319;-66
2022/08/26 03:40:12;;;;;;;2.97;2.70;;;16.10;99.90;;;;;;6284425;28;20299;-66
2022/08/26 03:43:18;;;;;;;6.35;2.50;;;16.20;99.90;;;;;;6284349;28;20303;-67
2022/08/26 03:46:25;;;;;;;2.60;2.50;;;16.20;99.90;;;;;;6284869;28;20294;-67
2022/08/26 03:49:33;;;;;;;3.38;2.95;;;16.20;99.90;;;;;;6288634;28;20299;-67
2022/08/26 03:52:39;;;;;;;4.88;2.72;;;16.20;99.90;;;;;;6289070;28;20275;-67
2022/08/26 03:55:48;;;;;;;2.88;2.75;;;16.10;99.90;;;;;;6288389;28;20303;-67
2022/08/26 03:58:56;;;;;;;3.50;2.70;;;16.10;99.90;;;;;;6288746;28;20299;-67
2022/08/26 04:02:02;;;;;;;2.70;2.70;;;16.10;99.90;;;;;;6288447;28;20271;-67
2022/08/26 04:05:18;;;;;;;3.28;3.08;;;16.10;99.90;;;;;;6288452;28;20290;-66
2022/08/26 04:08:24;;;;;;;2.67;2.42;;;16.10;99.90;;;;;;6288076;28;20287;-67
2022/08/26 04:11:34;;;;;;;2.72;2.60;;;16.10;99.90;;;;;;6288347;28;20466;-67
2022/08/26 04:14:42;;;;;;;2.50;2.50;;;16.10;99.90;;;;;;6287836;28;20302;-66
2022/08/26 04:17:50;;;;;;;2.67;2.60;;;16.10;99.90;;;;;;6288519;28;20448;-66
2022/08/26 04:20:55;;;;;;;2.60;2.50;;;16.10;99.90;;;;;;6288123;28;20384;-66
2022/08/26 04:24:00;;;;;;;2.70;2.70;;;16.10;99.90;;;;;;6287937;28;20424;-67
2022/08/26 04:27:09;;;;;;;2.70;2.50;;;16.10;99.90;;;;;;6288377;28;20295;-66
2022/08/26 04:30:16;;;;;;;4.13;2.83;;;16.20;99.90;;;;;;6288004;28;20314;-66
2022/08/26 04:33:22;;;;;;;3.17;3.00;;;16.20;99.90;;;;;;6287660;28;20275;-67
2022/08/26 04:36:37;;;;;;;7.50;2.80;;;16.20;99.90;;;;;;6288473;28;20579;-67
2022/08/26 04:39:42;;;;;;;3.92;2.47;;;16.20;99.90;;;;;;6287390;28;20303;-67
2022/08/26 04:42:49;;;;;;;3.00;2.90;;;16.20;99.90;;;;;;6287998;28;20575;-67
2022/08/26 04:45:55;;;;;;;3.00;2.90;;;16.20;99.90;;;;;;6287523;28;20295;-67
2022/08/26 04:49:03;;;;;;;3.28;3.08;;;16.30;99.90;;;;;;6286980;28;20299;-66
2022/08/26 04:52:12;;;;;;;3.00;2.80;;;16.30;99.90;;;;;;6288248;28;20276;-66
2022/08/26 04:55:18;;;;;;;3.10;2.90;;;16.40;99.90;;;;;;6287250;28;20299;-66
2022/08/26 04:58:24;;;;;;;3.17;2.85;;;16.40;99.90;;;;;;6286038;28;20546;-66
2022/08/26 05:01:31;;;;;;;2.70;2.70;;;16.40;99.90;;;;;;6287837;28;20291;-66
2022/08/26 05:04:38;;;;;;;2.97;2.97;;;16.40;99.90;;;;;;6286848;28;20299;-66
2022/08/26 05:07:43;;;;;;;3.15;2.83;;;16.40;99.90;;;;;;6287194;28;20603;-66
2022/08/26 05:10:54;;;;;;;2.85;2.85;;;16.50;99.90;;;;;;6286858;28;20299;-66
2022/08/26 05:14:00;;;;;;;2.85;2.65;;;16.60;99.90;;;;;;6287100;28;20294;-66
2022/08/26 05:17:07;;;;;;;3.10;3.00;;;16.60;99.90;;;;;;6287133;28;20458;-66
2022/08/26 05:20:15;;;;;;;3.03;2.88;;;16.60;99.90;;;;;;6286551;28;20294;-67
2022/08/26 05:23:22;;;;;;;4.28;2.75;;;16.70;99.90;;;;;;6286810;28;20276;-67
2022/08/26 05:26:30;;;;;;;2.97;2.88;;;16.70;99.90;;;;;;6287275;28;20276;-67
2022/08/26 05:29:35;;;;;;;2.65;2.65;;;16.70;99.90;;;;;;6286444;28;20304;-66
2022/08/26 05:32:42;;;;;;;3.58;3.33;;;16.80;99.90;;;;;;6286975;28;20275;-67
2022/08/26 05:35:49;;;;;;;3.05;2.95;;;16.90;99.90;;;;;;6286393;28;20316;-67
2022/08/26 05:38:56;;;;;;;3.03;2.83;;;17.00;99.90;;;;;;6286192;28;20299;-68
2022/08/26 05:42:02;;;;;;;2.75;2.75;;;17.00;99.90;;;;;;6287145;28;20271;-67
2022/08/26 05:45:09;;;;;;;2.63;2.53;;;17.00;99.90;;;;;;6286120;28;20295;-67
2022/08/26 05:48:17;;;;;;;3.42;2.90;;;17.20;99.90;;;;;;6285500;28;20287;-68
2022/08/26 05:51:30;;;;;;;2.80;2.70;;;17.30;99.90;;;;;;6270932;28;20271;-68
2022/08/26 05:54:35;;;;;;;3.30;3.10;;;17.30;99.90;;;;;;6286138;28;20306;-66
2022/08/26 05:57:42;;;;;;;2.88;2.83;;;17.40;99.90;;;;;;6286186;28;20282;-67
2022/08/26 06:00:58;;;;;;;3.28;2.97;;;17.50;99.90;;;;;;6285599;28;20322;-67
2022/08/26 06:04:04;;;;;;;7.18;3.22;;;17.50;99.90;;;;;;6285847;28;20303;-67
2022/08/26 06:07:11;;;;;;;9.00;2.78;;;17.60;99.90;;;;;;6285724;28;20275;-66
2022/08/26 06:10:18;;;;;;;3.40;3.05;;;17.70;99.90;;;;;;6285096;28;20306;-67
2022/08/26 06:13:38;;;;;;;3.10;2.90;;;17.80;99.90;;;;;;6254902;28;20295;-66
2022/08/26 06:16:44;;;;;;;5.32;2.67;;;17.90;99.90;;;;;;6260705;28;20272;-66
2022/08/26 06:19:49;;;;;;;2.65;2.50;;;18.00;99.90;;;;;;6260714;28;20299;-67
2022/08/26 06:26:21;;;;;;;4.25;2.33;;;18.10;99.90;;;;;;6259778;28;20276;-67
2022/08/26 06:29:27;;;;;;;2.60;2.38;;;18.20;99.90;;;;;;6259887;28;20304;-68
2022/08/26 06:32:33;;;;;;;5.15;2.35;;;18.30;99.90;;;;;;6259933;28;20279;-66
2022/08/26 06:35:40;;;;;;;13.20;2.80;;;18.40;99.90;;;;;;6260299;28;20304;-67
2022/08/26 06:38:48;;;;;;;2.47;2.30;;;18.50;99.90;;;;;;6260245;28;20304;-67
2022/08/26 06:41:54;;;;;;;2.70;2.50;;;18.70;99.90;;;;;;6260510;28;20276;-66
2022/08/26 06:45:01;;;;;;;2.72;2.47;;;18.70;99.90;;;;;;6259952;28;20295;-66
2022/08/26 06:48:07;;;;;;;2.63;2.50;;;18.70;99.90;;;;;;6260280;28;20296;-67
2022/08/26 06:51:15;;;;;;;2.80;2.28;;;18.70;99.90;;;;;;6259662;28;20456;-66
2022/08/26 06:54:22;;;;;;;2.85;2.63;;;18.90;99.90;;;;;;6260101;28;20291;-67
2022/08/26 06:57:31;;;;;;;2.38;2.28;;;19.00;99.90;;;;;;6260304;28;20272;-67
2022/08/26 07:00:37;;;;;;;3.63;2.30;;;19.20;99.90;;;;;;6259670;28;20307;-67
2022/08/26 07:03:46;;;;;;;2.22;2.22;;;19.40;99.90;;;;;;6259310;28;20291;-67
2022/08/26 07:06:52;;;;;;;3.55;2.97;;;19.60;99.90;;;;;;6260229;28;20268;-67
2022/08/26 07:09:59;;;;;;;2.72;2.53;;;19.70;99.90;;;;;;6259510;28;20303;-68
2022/08/26 07:13:05;;;;;;;2.22;2.13;;;19.80;99.90;;;;;;6274760;28;20263;-67
2022/08/26 07:16:16;;;;;;;3.10;2.42;;;19.70;99.90;;;;;;6284274;28;20271;-67
2022/08/26 07:19:22;;;;;;;2.55;2.45;;;19.70;99.90;;;;;;6284294;28;20299;-66
2022/08/26 07:22:36;;;;;;;2.22;2.20;;;19.70;99.90;;;;;;6287028;28;20436;-66
2022/08/26 07:25:43;;;;;;;10.40;2.53;;;19.70;99.90;;;;;;6289627;28;20300;-68
2022/08/26 07:28:51;;;;;;;5.93;2.65;;;19.80;99.90;;;;;;6289285;28;20302;-66
2022/08/26 07:31:57;;;;;;;7.00;2.30;;;19.80;99.90;;;;;;6289071;28;20271;-67
2022/08/26 07:35:05;;;;;;;9.85;2.78;;;19.80;99.90;;;;;;6288720;28;20300;-67
2022/08/26 07:38:12;;;;;;;2.17;2.03;;;19.80;99.90;;;;;;6288376;28;20457;-67
2022/08/26 07:41:22;;;;;;;4.55;2.22;;;19.70;99.90;;;;;;6289358;28;20554;-66
2022/08/26 07:44:28;;;;;;;3.05;1.75;;;19.90;99.90;;;;;;6289007;28;20299;-68
2022/08/26 07:47:33;;;;;;;4.95;2.28;;;19.90;99.90;;;;;;6288992;28;20263;-67
2022/08/26 07:50:40;;;;;;;2.45;2.30;;;19.90;99.90;;;;;;6288725;28;20298;-67
2022/08/26 07:53:54;;;;;;;2.53;1.88;;;19.90;99.90;;;;;;6289073;28;20299;-67
2022/08/26 07:57:01;;;;;;;5.18;1.90;;;20.00;99.90;;;;;;6289327;28;20272;-67
2022/08/26 08:00:16;;;;;;;4.05;1.88;;;20.00;99.90;;;;;;6288708;28;20606;-67
2022/08/26 08:03:22;;;;;;;2.75;1.83;;;20.10;99.90;;;;;;6288146;28;20590;-66
2022/08/26 08:06:28;;;;;;;5.63;2.40;;;20.00;99.90;;;;;;6288917;28;20575;-68
2022/08/26 08:09:36;;;;;;;2.10;2.00;;;19.90;99.90;;;;;;6288168;28;20303;-67
2022/08/26 08:12:46;;;;;;;3.33;2.28;;;20.00;99.90;;;;;;6288496;28;20263;-67
2022/08/26 08:15:52;;;;;;;1.95;1.95;;;20.10;99.90;;;;;;6287608;28;20589;-67
2022/08/26 08:18:57;;;;;;;2.03;1.98;;;20.10;99.90;;;;;;6288068;28;20299;-66
2022/08/26 08:22:04;;;;;;;4.30;2.15;;;20.20;99.90;;;;;;6287861;28;20339;-67
2022/08/26 08:25:22;;;;;;;9.35;1.90;;;20.30;99.90;;;;;;6287591;28;20299;-67
2022/08/26 08:28:29;;;;;;;2.90;2.00;;;20.30;99.90;;;;;;6287946;28;20272;-67
2022/08/26 08:31:35;;;;;;;2.15;1.75;;;20.30;99.90;;;;;;6288449;28;20454;-66
2022/08/26 08:35:02;;;;;;;2.25;2.10;;;20.30;99.90;;;;;;6287548;28;20299;-68
2022/08/26 08:38:16;;;;;;;2.10;1.90;;;20.20;99.90;;;;;;6287482;28;20563;-69
2022/08/26 08:41:43;;;;;;;2.63;1.83;;;20.20;99.90;;;;;;6280022;28;20275;-67
2022/08/26 08:44:52;;;;;;;5.28;1.92;;;20.20;99.90;;;;;;6287421;28;20298;-65
2022/08/26 08:48:01;;;;;;;5.32;2.10;;;20.10;99.90;;;;;;6287608;28;20551;-66
2022/08/26 08:51:15;;;;;;;1.95;1.92;;;20.10;99.90;;;;;;6287076;28;20447;-65
2022/08/26 08:54:25;;;;;;;5.18;2.20;;;20.20;99.90;;;;;;6286775;28;20295;-66
2022/08/26 08:57:40;;;;;;;1.80;1.80;;;20.30;99.90;;;;;;6287464;28;20310;-67
2022/08/26 09:01:00;;;;;;;1.88;1.88;;;20.20;99.90;;;;;;6286449;28;20490;-67
2022/08/26 09:04:43;;;;;;;1.60;1.60;;;20.20;99.90;;;;;;6286955;28;20303;-67
2022/08/26 09:07:53;;;;;;;2.20;2.00;;;20.20;99.90;;;;;;6284471;28;20271;-66
2022/08/26 09:11:01;;;;;;;2.08;1.98;;;20.20;99.90;;;;;;6286618;28;20294;-66
2022/08/26 09:14:07;;;;;;;2.15;1.95;;;20.20;99.90;;;;;;6286955;28;20330;-67
2022/08/26 09:17:22;;;;;;;1.90;1.85;;;20.10;99.90;;;;;;6286979;28;20267;-67
2022/08/26 09:20:37;;;;;;;1.90;1.90;;;20.10;99.90;;;;;;6279293;28;20318;-66
2022/08/26 09:23:45;;;;;;;2.85;1.70;;;20.10;99.90;;;;;;6286550;28;20295;-66
2022/08/26 09:26:56;;;;;;;4.10;1.90;;;20.00;99.90;;;;;;6287579;28;20271;-67
2022/08/26 09:30:01;;;;;;;2.35;2.20;;;20.20;99.90;;;;;;6286506;28;22183;-67
2022/08/26 09:33:12;;;;;;;3.20;3.10;;;20.20;99.90;;;;;;6286569;28;20271;-67
2022/08/26 09:36:25;;;;;;;3.15;2.00;;;20.20;99.90;;;;;;6285940;28;20278;-67
2022/08/26 09:39:35;;;;;;;2.58;2.00;;;20.20;99.90;;;;;;6275124;28;20295;-68
2022/08/26 09:42:42;;;;;;;4.43;2.17;;;20.30;99.90;;;;;;6261254;28;20571;-67
2022/08/26 09:45:53;;;;;;;2.45;2.00;;;20.30;99.90;;;;;;6260875;28;20300;-67
2022/08/26 09:49:29;;;;;;;2.22;2.03;;;20.30;99.90;;;;;;6260548;28;20483;-67
2022/08/26 09:52:40;;;;;;;2.00;2.00;;;20.30;99.90;;;;;;6261266;28;20483;-67
2022/08/26 09:55:49;;;;;;;1.85;1.85;;;20.30;99.90;;;;;;6261147;28;20300;-68
2022/08/26 09:58:56;;;;;;;2.22;2.22;;;20.40;99.90;;;;;;6260629;28;20564;-67
2022/08/26 10:02:19;;;;;;;1.92;1.83;;;20.50;99.90;;;;;;6261166;28;20276;-67
2022/08/26 10:05:35;;;;;;;24.45;4.80;;;20.50;99.90;;;;;;6260579;28;20291;-66
2022/08/26 10:08:44;;;;;;;4.65;2.10;;;20.60;99.90;;;;;;6259471;28;20291;-66
2022/08/26 10:11:55;;;;;;;2.33;2.20;;;20.60;99.90;;;;;;6264717;28;20298;-66
2022/08/26 10:15:08;;;;;;;2.72;2.50;;;20.50;99.90;;;;;;6285298;28;20296;-68
2022/08/26 10:18:19;;;;;;;2.60;2.40;;;20.50;99.90;;;;;;6285131;28;20267;-66
2022/08/26 10:21:30;;;;;;;2.00;2.00;;;20.50;99.90;;;;;;6284972;28;20270;-66
2022/08/26 10:24:41;;;;;;;2.20;2.20;;;20.40;99.90;;;;;;6285114;28;20295;-67
2022/08/26 10:27:54;;;;;;;2.30;2.10;;;20.50;99.90;;;;;;6285508;28;20271;-67
2022/08/26 10:31:05;;;;;;;2.22;2.22;;;20.50;99.90;;;;;;6284815;28;20483;-66
2022/08/26 10:34:12;;;;;;;2.25;2.08;;;20.40;99.90;;;;;;6284937;28;20299;-65
2022/08/26 10:37:23;;;;;;;3.40;1.95;;;20.50;99.90;;;;;;6285015;28;20363;-67
2022/08/26 10:40:46;;;;;;;3.97;1.90;;;20.60;99.90;;;;;;6284390;28;20299;-66
2022/08/26 10:43:57;;;;;;;4.32;2.05;;;20.70;99.90;;;;;;6283995;28;20295;-67
2022/08/26 10:47:15;;;;;;;10.65;2.38;;;20.80;99.90;;;;;;6285240;28;20271;-67
2022/08/26 10:50:25;;;;;;;2.13;2.13;;;20.80;99.40;;;;;;6284389;28;20300;-67
2022/08/26 10:53:45;;;;;;;3.25;1.88;;;20.80;99.50;;;;;;6283733;28;20297;-67
2022/08/26 10:57:00;;;;;;;2.15;1.67;;;20.90;98.70;;;;;;6286098;28;20266;-66
2022/08/26 11:03:41;;;;;;;1.98;1.90;;;20.90;98.00;;;;;;6289152;28;20311;-66
2022/08/26 11:06:46;;;;;;;2.65;1.95;;;21.00;98.50;;;;;;6289998;28;20275;-66
2022/08/26 11:09:53;;;;;;;2.30;2.20;;;21.00;98.40;;;;;;6289459;28;20464;-66
2022/08/26 11:13:02;;;;;;;4.50;2.15;;;21.00;98.30;;;;;;6269447;28;20283;-66
2022/08/26 11:16:09;;;;;;;2.22;1.88;;;21.10;98.10;;;;;;6240820;28;20300;-66
2022/08/26 11:19:59;;;;;;;1.85;1.85;;;21.20;98.20;;;;;;6239732;28;20301;-66
2022/08/26 11:23:47;;;;;;;2.00;2.00;;;21.20;98.60;;;;;;6239930;28;20272;-66
2022/08/26 11:26:56;;;;;;;2.00;2.00;;;21.30;98.80;;;;;;6240231;28;20264;-67
2022/08/26 11:30:05;;;;;;;2.22;2.10;;;21.40;99.10;;;;;;6240060;28;20316;-67
2022/08/26 11:33:49;;;;;;;2.10;2.10;;;21.40;98.70;;;;;;6239713;28;20579;-67
2022/08/26 11:36:58;;;;;;;2.05;2.05;;;21.40;98.50;;;;;;6238989;28;20272;-66
2022/08/26 11:40:09;;;;;;;2.10;1.90;;;21.40;98.50;;;;;;6239221;28;20316;-66
2022/08/26 11:43:24;;;;;;;2.38;2.28;;;21.50;98.50;;;;;;6239091;28;20520;-69
2022/08/26 11:46:36;;;;;;;3.17;3.08;;;21.40;98.80;;;;;;6240050;28;20268;-68
2022/08/26 11:49:42;;;;;;;2.50;2.40;;;21.40;98.80;;;;;;6239701;28;20296;-67
2022/08/26 11:53:00;;;;;;;2.30;2.30;;;21.40;98.90;;;;;;6239959;28;20288;-67
2022/08/26 11:56:10;;;;;;;1.88;1.88;;;21.40;99.20;;;;;;6239516;28;20299;-66
2022/08/26 11:59:23;;;;;;;2.03;2.03;;;21.50;98.70;;;;;;6263110;28;20291;-66
2022/08/26 12:02:28;;;;;;;1.85;1.80;;;21.40;98.50;;;;;;6273797;28;20295;-67
2022/08/26 12:05:38;;;;;;;1.90;1.90;;;21.40;98.40;;;;;;6313487;28;20295;-66
2022/08/26 12:08:44;;;;;;;2.20;2.10;;;21.50;98.40;;;;;;6312704;28;20294;-66
2022/08/26 12:11:51;;;;;;;2.03;2.03;;;21.50;98.30;;;;;;6313457;28;20262;-67
2022/08/26 12:15:15;;;;;;;2.10;2.10;;;21.50;98.20;;;;;;6313390;28;20294;-66
2022/08/26 12:18:23;;;;;;;1.80;1.80;;;21.50;98.60;;;;;;6312779;28;20270;-67
2022/08/26 12:21:34;;;;;;;1.88;1.77;;;21.50;98.40;;;;;;6313356;28;20274;-67
2022/08/26 12:24:44;;;;;;;2.10;2.10;;;21.60;98.10;;;;;;6312984;28;20301;-67
2022/08/26 12:27:50;;;;;;;2.60;1.95;;;21.50;98.80;;;;;;6311736;28;20274;-67
2022/08/26 12:31:05;;;;;;;1.80;1.80;;;21.60;98.50;;;;;;6313106;28;20490;-66
2022/08/26 12:34:14;;;;;;;1.85;1.83;;;21.60;98.10;;;;;;6312453;28;20505;-67
2022/08/26 12:37:22;;;;;;;4.00;2.08;;;21.80;97.90;;;;;;6313151;28;20275;-67
2022/08/26 12:40:35;;;;;;;4.00;2.03;;;21.90;98.00;;;;;;6312730;28;20314;-67
2022/08/26 12:43:43;;;;;;;1.88;1.80;;;21.80;97.80;;;;;;6312543;28;20294;-67
2022/08/26 12:46:50;;;;;;;7.53;2.00;;;21.80;97.90;;;;;;6312924;28;20270;-67
2022/08/26 12:50:03;;;;;;;3.17;2.40;;;21.90;97.70;;;;;;6312292;28;20334;-67
2022/08/26 12:53:20;;;;;;;3.05;2.05;;;21.90;97.60;;;;;;6312584;28;20613;-67
2022/08/26 12:56:30;;;;;;;2.72;2.63;;;22.00;97.40;;;;;;6312085;28;20562;-66
2022/08/26 12:59:35;;;;;;;1.92;1.92;;;22.00;97.10;;;;;;6312129;28;20294;-67
2022/08/26 13:02:42;;;;;;;2.88;2.10;;;22.00;97.10;;;;;;6312687;28;20298;-66
2022/08/26 13:05:48;;;;;;;16.73;2.60;;;22.00;97.80;;;;;;6311931;28;20295;-66
2022/08/26 13:08:55;;;;;;;3.47;2.33;;;22.00;97.10;;;;;;6311814;28;20298;-66
2022/08/26 13:12:01;;;;;;;2.30;2.17;;;21.80;97.50;;;;;;6312194;28;20267;-67
2022/08/26 13:15:08;;;;;;;2.50;2.30;;;21.90;97.50;;;;;;6311456;28;20302;-67
2022/08/26 13:18:15;;;;;;;2.30;2.30;;;21.90;98.10;;;;;;6311183;28;20462;-67
2022/08/26 13:21:23;;;;;;;2.42;2.28;;;21.90;97.60;;;;;;6311323;28;20457;-65
2022/08/26 13:24:34;;;;;;;2.08;2.08;;;21.90;97.90;;;;;;6311330;28;20318;-66
2022/08/26 13:27:39;;;;;;;2.17;1.95;;;22.00;97.80;;;;;;6311808;28;20577;-67
2022/08/26 13:30:48;;;;;;;2.42;2.33;;;22.10;97.90;;;;;;6311641;28;20487;-67
2022/08/26 13:33:55;;;;;;;2.17;2.17;;;22.10;97.70;;;;;;6311098;28;20303;-67
2022/08/26 13:37:02;;;;;;;2.60;2.53;;;22.10;97.80;;;;;;6311186;28;20313;-66
2022/08/26 13:40:09;;;;;;;2.38;2.28;;;22.10;97.80;;;;;;6311161;28;20289;-67
2022/08/26 13:43:16;;;;;;;4.43;2.30;;;22.20;97.40;;;;;;6311093;28;20274;-67
2022/08/26 13:46:22;;;;;;;2.22;2.00;;;22.10;97.30;;;;;;6311575;28;20275;-67
2022/08/26 13:49:29;;;;;;;4.20;4.10;;;22.20;97.40;;;;;;6310687;28;20294;-67
2022/08/26 13:52:34;;;;;;;2.25;2.22;;;22.10;97.50;;;;;;6310950;28;20274;-67
2022/08/26 13:55:40;;;;;;;2.30;2.20;;;22.00;97.10;;;;;;6310639;28;20357;-67
2022/08/26 13:58:45;;;;;;;10.95;2.80;;;21.80;97.60;;;;;;6293042;28;20298;-67
2022/08/26 14:01:51;;;;;;;2.67;2.30;;;21.80;97.60;;;;;;6311287;28;20271;-67
2022/08/26 14:04:58;;;;;;;2.42;2.30;;;21.90;97.50;;;;;;6261273;28;20323;-66
2022/08/26 14:08:05;;;;;;;2.30;2.30;;;21.80;97.70;;;;;;6261181;28;20535;-67
2022/08/26 14:11:11;;;;;;;2.30;2.20;;;21.80;97.70;;;;;;6260785;28;20297;-67
2022/08/26 14:14:16;;;;;;;2.58;2.40;;;21.80;97.60;;;;;;6251993;28;20564;-66
2022/08/26 14:17:23;;;;;;;2.25;2.15;;;21.70;97.60;;;;;;6236558;28;20272;-66
2022/08/26 14:20:32;;;;;;;3.45;2.25;;;21.80;97.80;;;;;;6273593;28;20300;-66
2022/08/26 14:23:37;;;;;;;2.50;2.28;;;21.80;97.70;;;;;;6285397;28;20291;-67
2022/08/26 14:26:43;;;;;;;2.53;2.35;;;21.80;97.70;;;;;;6286202;28;20271;-67
2022/08/26 14:29:48;;;;;;;2.20;2.20;;;21.80;97.80;;;;;;6285479;28;20299;-67
2022/08/26 14:32:57;;;;;;;2.60;2.30;;;21.80;97.80;;;;;;6285863;28;20550;-67
2022/08/26 14:39:27;;;;;;;2.28;2.28;;;21.70;97.90;;;;;;6285169;28;20295;-66
2022/08/26 14:42:33;;;;;;;2.15;2.15;;;21.70;98.00;;;;;;6285652;28;20270;-67
2022/08/26 14:45:42;;;;;;;2.50;2.30;;;21.70;97.90;;;;;;6285376;28;20332;-67
2022/08/26 14:48:47;;;;;;;2.25;2.25;;;21.70;97.60;;;;;;6285158;28;20296;-66
2022/08/26 14:51:55;;;;;;;2.60;2.40;;;21.60;97.80;;;;;;6285652;28;20276;-66
2022/08/26 14:55:00;;;;;;;3.60;2.10;;;21.50;98.00;;;;;;6284772;28;20302;-67
2022/08/26 14:58:06;;;;;;;2.22;2.00;;;21.50;97.90;;;;;;6285824;28;20267;-65
2022/08/26 15:01:12;;;;;;;2.40;2.30;;;21.50;97.80;;;;;;6284448;28;20298;-66
2022/08/26 15:04:17;;;;;;;8.30;2.10;;;21.60;98.00;;;;;;6304134;28;20294;-67
2022/08/26 15:07:24;;;;;;;2.33;2.15;;;21.50;98.60;;;;;;6310257;28;20271;-66
2022/08/26 15:10:30;;;;;;;4.55;2.20;;;21.50;98.10;;;;;;6309754;28;20484;-66
2022/08/26 15:13:35;;;;;;;2.47;2.47;;;21.50;98.40;;;;;;6309780;28;20290;-67
2022/08/26 15:16:41;;;;;;;2.50;2.47;;;21.50;98.40;;;;;;6309856;28;20290;-68
2022/08/26 15:19:46;;;;;;;2.20;2.20;;;21.40;98.90;;;;;;6309560;28;20297;-66
2022/08/26 15:22:53;;;;;;;3.05;2.20;;;21.40;98.30;;;;;;6310396;28;20266;-67
2022/08/26 15:25:58;;;;;;;5.18;2.08;;;21.40;98.30;;;;;;6309680;28;20302;-67
2022/08/26 15:29:05;;;;;;;1.92;1.92;;;21.40;98.40;;;;;;6309785;28;20294;-66
2022/08/26 15:32:11;;;;;;;2.00;2.00;;;21.40;98.40;;;;;;6309459;28;20290;-66
2022/08/26 15:35:17;;;;;;;2.10;2.00;;;21.30;98.40;;;;;;6309987;28;20487;-66
2022/08/26 15:38:24;;;;;;;4.00;2.20;;;21.30;98.30;;;;;;6310125;28;20345;-66
2022/08/26 15:41:29;;;;;;;2.10;2.00;;;21.30;98.60;;;;;;6309939;28;20266;-67
2022/08/26 15:44:43;;;;;;;2.00;1.90;;;21.20;98.60;;;;;;6313722;28;20290;-67
2022/08/26 15:47:49;;;;;;;2.20;2.13;;;21.20;98.60;;;;;;6314749;28;20270;-67
2022/08/26 15:51:08;;;;;;;2.63;1.83;;;21.20;99.00;;;;;;6314076;28;20605;-66
2022/08/26 15:54:18;;;;;;;2.25;2.15;;;21.20;99.10;;;;;;6313935;28;20300;-67
2022/08/26 15:57:23;;;;;;;5.10;2.15;;;21.20;99.00;;;;;;6314358;28;20381;-66
2022/08/26 16:00:31;;;;;;;3.17;2.00;;;21.10;98.80;;;;;;6313735;28;20299;-66
2022/08/26 16:03:37;;;;;;;2.17;2.08;;;21.00;98.60;;;;;;6313872;28;20295;-66
2022/08/26 16:06:42;;;;;;;2.05;1.95;;;21.00;98.50;;;;;;6314664;28;20278;-68
2022/08/26 16:09:52;;;;;;;2.83;2.30;;;20.90;99.50;;;;;;6313815;28;20293;-66
2022/08/26 16:12:59;;;;;;;2.53;2.53;;;21.00;99.90;;;;;;6313979;28;20438;-67
2022/08/26 16:16:04;;;;;;;2.78;2.67;;;20.90;99.90;;;;;;6313721;28;20479;-66
2022/08/26 16:19:11;;;;;;;3.00;2.90;;;20.80;99.90;;;;;;6313415;28;20299;-66
2022/08/26 16:22:17;;;;;;;2.28;2.20;;;20.80;99.90;;;;;;6313865;28;20270;-66
2022/08/26 16:25:25;;;;;;;2.58;2.58;;;20.80;99.90;;;;;;6313627;28;20298;-67
2022/08/26 16:28:31;;;;;;;2.38;2.33;;;20.80;99.90;;;;;;6313341;28;20270;-66
2022/08/26 16:31:37;;;;;;;2.63;2.53;;;20.70;99.90;;;;;;6313598;28;20270;-68